createdAt,value
2018-12-09T00:03:51.990Z,0.20
2018-12-09T00:08:59.112Z,0.20
2018-12-09T00:14:04.152Z,0.40
2018-12-09T00:19:09.012Z,0.30
2018-12-09T00:24:14.043Z,0.30
2018-12-09T00:29:18.896Z,0.20
2018-12-09T00:34:24.033Z,0.30
2018-12-09T00:39:28.996Z,0.20
2018-12-09T00:44:34.031Z,0.20
2018-12-09T00:49:38.969Z,0.13
2018-12-09T00:54:43.932Z,0.17
2018-12-09T00:59:48.903Z,0.20
2018-12-09T01:04:53.762Z,0.20
2018-12-09T01:09:58.700Z,0.20
2018-12-09T01:15:03.736Z,0.10
2018-12-09T01:20:09.003Z,0.20
2018-12-09T01:25:13.902Z,0.00
2018-12-09T01:30:18.739Z,0.10
2018-12-09T01:35:23.615Z,0.17
2018-12-09T01:40:31.089Z,0.00
2018-12-09T01:45:35.960Z,0.10
2018-12-09T01:50:41.030Z,0.10
2018-12-09T01:55:47.281Z,0.10
2018-12-09T02:00:52.157Z,0.10
2018-12-09T02:05:57.097Z,0.10
2018-12-09T02:11:02.013Z,0.10
2018-12-09T02:16:06.965Z,0.03
2018-12-09T02:21:11.836Z,0.03
2018-12-09T02:26:16.772Z,0.10
2018-12-09T02:31:22.338Z,0.10
2018-12-09T02:36:27.597Z,0.00
2018-12-09T02:41:32.642Z,0.10
2018-12-09T02:46:37.508Z,0.00
2018-12-09T02:51:42.453Z,0.03
2018-12-09T02:56:47.354Z,0.00
2018-12-09T03:01:52.490Z,0.00
2018-12-09T03:06:57.466Z,0.07
2018-12-09T03:12:02.456Z,0.10
2018-12-09T03:17:08.330Z,0.00
2018-12-09T03:22:13.145Z,0.10
2018-12-09T03:27:18.013Z,0.10
2018-12-09T03:32:22.955Z,0.00
2018-12-09T03:37:27.780Z,0.10
2018-12-09T03:42:32.830Z,0.17
2018-12-09T03:47:37.824Z,0.10
2018-12-09T03:52:42.827Z,0.23
2018-12-09T03:57:47.820Z,0.40
2018-12-09T04:02:53.149Z,0.40
2018-12-09T04:07:58.091Z,0.37
2018-12-09T04:13:03.139Z,0.40
2018-12-09T04:18:08.128Z,0.60
2018-12-09T04:23:13.045Z,0.70
2018-12-09T04:28:18.056Z,0.60
2018-12-09T04:33:23.139Z,0.50
2018-12-09T04:38:27.975Z,0.70
2018-12-09T04:43:32.896Z,0.70
2018-12-09T04:48:37.885Z,0.60
2018-12-09T04:53:42.729Z,0.60
2018-12-09T04:59:27.047Z,0.60
2018-12-09T05:04:31.988Z,0.60
2018-12-09T05:09:36.996Z,0.70
2018-12-09T05:14:41.830Z,0.50
2018-12-09T05:19:46.752Z,0.60
2018-12-09T05:24:51.836Z,0.60
2018-12-09T05:29:56.791Z,0.53
2018-12-09T05:35:01.773Z,0.80
2018-12-09T05:40:08.847Z,0.90
2018-12-09T05:45:13.656Z,0.57
2018-12-09T05:50:19.034Z,0.80
2018-12-09T05:55:24.065Z,0.70
2018-12-09T06:00:29.053Z,0.60
2018-12-09T06:05:33.878Z,0.50
2018-12-09T06:10:38.753Z,0.80
2018-12-09T06:15:43.686Z,0.70
2018-12-09T06:20:48.813Z,0.63
2018-12-09T06:25:53.672Z,0.80
2018-12-09T06:30:58.613Z,0.53
2018-12-09T06:36:03.646Z,0.50
2018-12-09T06:41:08.721Z,0.50
2018-12-09T06:46:13.552Z,0.63
2018-12-09T06:51:18.511Z,0.67
2018-12-09T06:56:23.764Z,0.83
2018-12-09T07:01:30.712Z,0.60
2018-12-09T07:06:35.735Z,0.80
2018-12-09T07:11:40.550Z,0.70
2018-12-09T07:16:45.789Z,0.90
2018-12-09T07:21:50.765Z,1.10
2018-12-09T07:26:56.080Z,0.70
2018-12-09T07:32:01.155Z,0.70
2018-12-09T07:37:06.198Z,0.70
2018-12-09T07:42:12.236Z,0.83
2018-12-09T07:47:18.205Z,1.00
2018-12-09T07:52:23.212Z,0.80
2018-12-09T07:57:28.201Z,1.30
2018-12-09T08:02:32.917Z,0.90
2018-12-09T08:07:37.928Z,0.90
2018-12-09T08:12:42.902Z,1.10
2018-12-09T08:17:57.405Z,1.10
2018-12-09T08:23:09.670Z,1.00
2018-12-09T08:28:17.352Z,0.90
2018-12-09T08:33:22.310Z,1.30
2018-12-09T08:38:27.188Z,1.40
2018-12-09T08:43:32.345Z,1.10
2018-12-09T08:48:37.388Z,1.60
2018-12-09T08:53:42.232Z,1.43
2018-12-09T08:58:47.342Z,1.40
2018-12-09T09:03:52.330Z,1.93
2018-12-09T09:08:57.283Z,1.37
2018-12-09T09:14:02.327Z,1.60
2018-12-09T09:19:07.419Z,1.27
2018-12-09T09:24:12.778Z,1.30
2018-12-09T09:29:18.230Z,1.80
2018-12-09T09:34:23.347Z,2.20
2018-12-09T09:39:28.516Z,1.03
2018-12-09T09:44:33.449Z,1.07
2018-12-09T09:49:38.491Z,1.60
2018-12-09T09:54:43.390Z,1.33
2018-12-09T09:59:48.416Z,1.60
2018-12-09T10:04:53.217Z,1.03
2018-12-09T10:09:58.058Z,1.03
2018-12-09T10:15:03.641Z,0.70
2018-12-09T10:20:08.817Z,0.87
2018-12-09T10:25:13.766Z,0.90
2018-12-09T10:30:18.804Z,0.80
2018-12-09T10:35:23.633Z,0.93
2018-12-09T10:40:28.473Z,0.53
2018-12-09T10:45:33.431Z,0.60
2018-12-09T10:50:38.255Z,0.70
2018-12-09T10:55:43.249Z,0.70
2018-12-09T11:00:52.220Z,0.77
2018-12-09T11:05:57.014Z,0.50
2018-12-09T11:11:01.932Z,0.70
2018-12-09T11:16:06.811Z,0.60
2018-12-09T11:21:11.778Z,0.53
2018-12-09T11:26:16.908Z,0.63
2018-12-09T11:31:22.067Z,0.70
2018-12-09T11:36:27.010Z,0.50
2018-12-09T11:41:32.550Z,0.70
2018-12-09T11:46:37.639Z,0.40
2018-12-09T11:51:42.603Z,0.30
2018-12-09T11:56:47.640Z,0.57
2018-12-09T12:01:52.466Z,0.80
2018-12-09T12:06:57.426Z,0.70
2018-12-09T12:12:02.482Z,0.60
2018-12-09T12:17:07.561Z,0.60
2018-12-09T12:22:12.657Z,0.60
2018-12-09T12:27:17.640Z,0.60
2018-12-09T12:32:22.763Z,0.50
2018-12-09T12:37:28.315Z,0.60
2018-12-09T12:42:33.382Z,0.57
2018-12-09T12:47:38.222Z,0.60
2018-12-09T12:52:43.161Z,1.00
2018-12-09T12:57:48.863Z,0.50
2018-12-09T13:02:55.597Z,0.97
2018-12-09T13:08:06.129Z,0.90
2018-12-09T13:13:12.138Z,0.90
2018-12-09T13:18:18.186Z,1.03
2018-12-09T13:23:23.640Z,0.97
2018-12-09T13:28:29.624Z,0.70
2018-12-09T13:33:34.954Z,2.50
2018-12-09T13:38:40.679Z,2.80
2018-12-09T13:43:46.042Z,1.10
2018-12-09T13:48:57.809Z,1.00
2018-12-09T13:54:04.040Z,0.87
2018-12-09T13:59:12.006Z,0.73
2018-12-09T14:04:17.235Z,0.87
2018-12-09T14:09:26.812Z,1.00
2018-12-09T14:14:31.736Z,0.93
2018-12-09T14:19:36.881Z,0.90
2018-12-09T14:24:42.043Z,1.00
2018-12-09T14:29:46.947Z,0.90
2018-12-09T14:34:51.712Z,0.90
2018-12-09T14:39:56.672Z,1.17
2018-12-09T14:45:01.616Z,1.13
2018-12-09T14:50:08.553Z,0.90
2018-12-09T14:55:13.638Z,0.80
2018-12-09T15:00:18.527Z,0.70
2018-12-09T15:05:23.560Z,0.80
2018-12-09T15:10:28.607Z,0.60
2018-12-09T15:15:33.446Z,0.77
2018-12-09T15:20:38.501Z,0.77
2018-12-09T15:25:44.723Z,1.10
2018-12-09T15:30:49.830Z,0.90
2018-12-09T15:35:56.928Z,1.47
2018-12-09T15:41:02.078Z,1.37
2018-12-09T15:46:07.012Z,1.30
2018-12-09T15:51:12.327Z,1.40
2018-12-09T15:56:17.312Z,1.00
2018-12-09T16:01:22.579Z,1.90
2018-12-09T16:06:27.457Z,1.40
2018-12-09T16:11:32.402Z,1.03
2018-12-09T16:16:37.359Z,1.30
2018-12-09T16:21:42.973Z,1.20
2018-12-09T16:26:47.839Z,1.03
2018-12-09T16:31:54.965Z,1.50
2018-12-09T16:37:07.594Z,0.80
2018-12-09T16:42:12.767Z,0.90
2018-12-09T16:47:17.573Z,0.87
2018-12-09T16:52:22.540Z,1.33
2018-12-09T16:57:28.211Z,1.63
2018-12-09T17:02:35.399Z,1.30
2018-12-09T17:07:42.551Z,0.80
2018-12-09T17:12:48.784Z,0.80
2018-12-09T17:17:53.895Z,0.67
2018-12-09T17:23:00.211Z,0.80
2018-12-09T17:28:07.683Z,0.80
2018-12-09T17:33:12.780Z,0.50
2018-12-09T17:38:17.835Z,1.00
2018-12-09T17:43:22.629Z,0.80
2018-12-09T17:48:27.582Z,0.60
2018-12-09T17:53:32.746Z,0.90
2018-12-09T17:58:38.778Z,1.00
2018-12-09T18:03:43.965Z,0.90
2018-12-09T18:08:49.158Z,1.10
2018-12-09T18:13:54.201Z,1.27
2018-12-09T18:18:59.039Z,0.87
2018-12-09T18:24:03.942Z,1.30
2018-12-09T18:29:08.935Z,1.10
2018-12-09T18:34:13.942Z,1.10
2018-12-09T18:39:18.933Z,1.37
2018-12-09T18:44:23.864Z,1.30
2018-12-09T18:49:28.729Z,1.33
2018-12-09T18:54:33.720Z,1.20
2018-12-09T18:59:40.152Z,1.17
2018-12-09T19:04:45.366Z,1.30
2018-12-09T19:09:51.859Z,1.50
2018-12-09T19:14:56.714Z,1.60
2018-12-09T19:20:01.294Z,1.60
2018-12-09T19:25:07.005Z,1.80
2018-12-09T19:30:11.570Z,1.63
2018-12-09T19:35:16.120Z,1.73
2018-12-09T19:40:20.645Z,2.10
2018-12-09T19:45:25.585Z,1.50
2018-12-09T19:50:30.746Z,1.40
2018-12-09T19:55:35.673Z,1.53
2018-12-09T20:00:40.526Z,1.50
2018-12-09T20:05:45.557Z,1.30
2018-12-09T20:10:50.434Z,1.20
2018-12-09T20:15:55.500Z,1.40
2018-12-09T20:21:00.070Z,1.37
2018-12-09T20:26:04.723Z,1.23
2018-12-09T20:31:09.259Z,1.10
2018-12-09T20:36:13.847Z,1.10
2018-12-09T20:41:18.423Z,1.90
2018-12-09T20:46:23.070Z,1.47
2018-12-09T20:51:27.597Z,1.30
2018-12-09T20:56:32.133Z,1.57
2018-12-09T21:01:36.859Z,1.47
2018-12-09T21:06:41.462Z,1.50
2018-12-09T21:11:46.966Z,1.10
2018-12-09T21:16:51.576Z,1.00
2018-12-09T21:21:56.102Z,1.70
2018-12-09T21:27:00.668Z,1.17
2018-12-09T21:32:05.659Z,1.43
2018-12-09T21:37:10.574Z,1.30
2018-12-09T21:42:15.402Z,1.30
2018-12-09T21:47:20.251Z,1.63
2018-12-09T21:52:25.280Z,1.43
2018-12-09T21:57:30.254Z,1.50
2018-12-09T22:02:35.156Z,1.53
2018-12-09T22:07:40.013Z,1.33
2018-12-09T22:12:45.065Z,1.20
2018-12-09T22:17:50.015Z,1.33
2018-12-09T22:22:54.994Z,0.90
2018-12-09T22:28:00.039Z,1.40
2018-12-09T22:33:04.954Z,1.30
2018-12-09T22:38:09.714Z,1.30
2018-12-09T22:43:14.759Z,1.40
2018-12-09T22:48:19.577Z,1.30
2018-12-09T22:53:24.459Z,1.30
2018-12-09T22:58:29.486Z,1.50
2018-12-09T23:03:34.436Z,1.40
2018-12-09T23:08:39.505Z,1.53
2018-12-09T23:13:44.119Z,1.37
2018-12-09T23:18:48.656Z,1.40
2018-12-09T23:23:53.189Z,2.07
2018-12-09T23:28:57.745Z,1.50
2018-12-09T23:34:02.295Z,1.60
2018-12-09T23:39:07.030Z,1.33
2018-12-09T23:44:12.719Z,1.30
2018-12-09T23:49:17.280Z,1.57
2018-12-09T23:54:21.816Z,1.80
2018-12-09T23:59:26.419Z,1.30
